createdAt,value
2019-04-14T00:01:02.284Z,2.15
2019-04-14T00:03:32.534Z,2.06
2019-04-14T00:06:02.726Z,2.03
2019-04-14T00:08:31.254Z,1.90
2019-04-14T00:10:59.819Z,1.81
2019-04-14T00:13:28.547Z,1.75
2019-04-14T00:15:58.900Z,1.80
2019-04-14T00:18:29.577Z,1.92
2019-04-14T00:20:57.973Z,1.83
2019-04-14T00:23:26.369Z,1.94
2019-04-14T00:25:54.766Z,1.96
2019-04-14T00:28:23.229Z,1.89
2019-04-14T00:30:51.635Z,1.85
2019-04-14T00:33:28.110Z,1.79
2019-04-14T00:36:04.497Z,1.71
2019-04-14T00:38:34.668Z,1.62
2019-04-14T00:41:07.565Z,1.54
2019-04-14T00:43:43.987Z,1.49
2019-04-14T00:46:21.057Z,1.39
2019-04-14T00:48:52.032Z,1.35
2019-04-14T00:51:22.973Z,1.26
2019-04-14T00:53:51.383Z,1.25
2019-04-14T00:56:19.774Z,1.18
2019-04-14T00:58:52.035Z,1.01
2019-04-14T01:01:24.275Z,0.93
2019-04-14T01:03:50.527Z,0.93
2019-04-14T01:06:19.121Z,0.88
2019-04-14T01:08:47.495Z,0.84
2019-04-14T01:11:16.042Z,0.79
2019-04-14T01:13:44.386Z,0.68
2019-04-14T01:16:19.864Z,0.68
2019-04-14T01:18:45.116Z,0.69
2019-04-14T01:21:13.616Z,0.66
2019-04-14T01:23:41.989Z,0.65
2019-04-14T01:26:11.667Z,0.77
2019-04-14T01:28:40.142Z,0.90
2019-04-14T01:31:09.762Z,0.94
2019-04-14T01:33:38.209Z,0.92
2019-04-14T01:36:06.619Z,1.15
2019-04-14T01:38:35.006Z,1.26
2019-04-14T01:41:04.253Z,1.20
2019-04-14T01:43:34.093Z,1.31
2019-04-14T01:46:11.700Z,1.35
2019-04-14T01:48:32.702Z,1.28
2019-04-14T01:51:20.947Z,1.38
2019-04-14T01:53:51.087Z,1.42
2019-04-14T01:56:30.212Z,1.44
2019-04-14T01:59:02.857Z,1.56
2019-04-14T02:01:32.918Z,1.72
2019-04-14T02:04:01.324Z,1.84
2019-04-14T02:06:29.733Z,1.84
2019-04-14T02:08:58.955Z,2.00
2019-04-14T02:11:27.399Z,2.05
2019-04-14T02:13:57.131Z,2.13
2019-04-14T02:16:32.736Z,2.15
2019-04-14T02:18:56.901Z,2.01
2019-04-14T02:21:26.063Z,1.99
2019-04-14T02:23:58.348Z,1.81
2019-04-14T02:26:26.169Z,1.71
2019-04-14T02:28:55.045Z,1.74
2019-04-14T02:31:45.333Z,1.72
2019-04-14T02:34:27.679Z,1.85
2019-04-14T02:39:22.503Z,1.76
2019-04-14T02:42:00.559Z,1.76
2019-04-14T02:44:27.595Z,1.93
2019-04-14T02:49:19.167Z,2.02
2019-04-14T02:51:50.062Z,2.05
2019-04-14T02:54:22.956Z,2.00
2019-04-14T02:56:52.500Z,1.99
2019-04-14T02:59:22.882Z,2.02
2019-04-14T03:02:03.456Z,2.09
2019-04-14T03:04:18.747Z,2.10
2019-04-14T03:06:56.389Z,1.99
2019-04-14T03:09:34.703Z,2.01
2019-04-14T03:11:51.843Z,2.00
2019-04-14T03:14:21.452Z,1.90
2019-04-14T03:17:07.379Z,2.01
2019-04-14T03:19:41.145Z,2.00
2019-04-14T03:22:19.939Z,2.04
2019-04-14T03:24:37.423Z,2.01
2019-04-14T03:27:26.607Z,1.90
2019-04-14T03:29:58.327Z,1.77
2019-04-14T03:35:16.493Z,1.82
2019-04-14T03:39:51.833Z,1.79
2019-04-14T03:42:28.857Z,1.86
2019-04-14T03:44:56.502Z,1.88
2019-04-14T03:47:28.598Z,1.92
2019-04-14T03:50:00.435Z,-0.66
2019-04-14T03:52:31.934Z,2.06
2019-04-14T03:54:52.838Z,2.20
2019-04-14T03:57:02.001Z,2.18
2019-04-14T03:59:30.446Z,2.35
2019-04-14T04:01:58.828Z,2.35
2019-04-14T04:04:27.518Z,2.37
2019-04-14T04:06:57.347Z,2.37
2019-04-14T04:09:27.856Z,2.53
2019-04-14T04:11:56.446Z,2.53
2019-04-14T04:14:25.450Z,2.56
2019-04-14T04:17:01.711Z,2.57
2019-04-14T04:19:31.760Z,2.56
2019-04-14T04:22:17.970Z,2.65
2019-04-14T04:24:50.502Z,2.60
2019-04-14T04:27:32.964Z,2.61
2019-04-14T04:30:06.000Z,2.71
2019-04-14T04:32:51.552Z,2.69
2019-04-14T04:35:34.799Z,2.85
2019-04-14T04:38:12.359Z,2.83
2019-04-14T04:40:41.762Z,2.85
2019-04-14T04:43:10.297Z,2.94
2019-04-14T04:45:38.749Z,3.01
2019-04-14T04:48:07.096Z,3.03
2019-04-14T04:50:36.729Z,3.10
2019-04-14T04:53:05.311Z,3.10
2019-04-14T04:55:35.140Z,3.11
2019-04-14T04:58:05.627Z,3.24
2019-04-14T05:00:35.350Z,3.28
2019-04-14T05:03:03.825Z,3.31
2019-04-14T05:06:07.429Z,3.37
2019-04-14T05:08:39.135Z,3.49
2019-04-14T05:11:09.695Z,3.49
2019-04-14T05:13:38.717Z,3.61
2019-04-14T05:16:08.550Z,3.69
2019-04-14T05:18:37.759Z,3.73
2019-04-14T05:21:06.310Z,3.95
2019-04-14T05:23:34.683Z,3.95
2019-04-14T05:26:03.062Z,4.05
2019-04-14T05:28:31.473Z,4.12
2019-04-14T05:31:03.240Z,4.14
2019-04-14T05:33:31.403Z,4.32
2019-04-14T05:36:00.005Z,4.28
2019-04-14T05:38:32.602Z,4.39
2019-04-14T05:41:02.677Z,4.66
2019-04-14T05:43:40.570Z,4.86
2019-04-14T05:46:05.590Z,4.91
2019-04-14T05:48:33.741Z,4.90
2019-04-14T05:51:02.266Z,5.19
2019-04-14T05:53:32.717Z,5.05
2019-04-14T05:56:01.439Z,5.09
2019-04-14T05:58:30.001Z,5.21
2019-04-14T06:00:58.390Z,5.38
2019-04-14T06:03:27.757Z,5.64
2019-04-14T06:05:56.239Z,5.64
2019-04-14T06:08:24.621Z,5.75
2019-04-14T06:10:53.012Z,5.89
2019-04-14T06:13:21.430Z,5.87
2019-04-14T06:15:50.424Z,5.91
2019-04-14T06:18:18.843Z,5.94
2019-04-14T06:20:47.245Z,6.07
2019-04-14T06:23:15.621Z,6.20
2019-04-14T06:25:44.075Z,6.15
2019-04-14T06:28:14.992Z,6.20
2019-04-14T06:30:48.902Z,6.09
2019-04-14T06:33:37.129Z,6.25
2019-04-14T06:36:12.209Z,6.45
2019-04-14T06:38:44.707Z,5.98
2019-04-14T06:41:16.977Z,6.44
2019-04-14T06:43:49.066Z,6.52
2019-04-14T06:46:16.429Z,6.53
2019-04-14T06:48:44.859Z,6.47
2019-04-14T06:51:13.239Z,6.56
2019-04-14T06:53:41.755Z,6.69
2019-04-14T06:56:10.128Z,6.68
2019-04-14T06:58:38.550Z,6.84
2019-04-14T07:01:06.935Z,6.91
2019-04-14T07:03:35.309Z,6.91
2019-04-14T07:06:03.716Z,6.73
2019-04-14T07:08:32.114Z,6.89
2019-04-14T07:11:00.497Z,6.99
2019-04-14T07:13:28.903Z,6.93
2019-04-14T07:15:57.288Z,6.73
2019-04-14T07:18:25.678Z,6.99
2019-04-14T07:20:54.098Z,6.90
2019-04-14T07:23:22.476Z,6.93
2019-04-14T07:25:50.881Z,7.02
2019-04-14T07:28:19.301Z,6.88
2019-04-14T07:30:49.329Z,6.97
2019-04-14T07:33:19.360Z,6.99
2019-04-14T07:36:04.670Z,7.03
2019-04-14T07:38:48.914Z,7.00
2019-04-14T07:41:34.013Z,7.15
2019-04-14T07:44:04.046Z,7.20
2019-04-14T07:46:37.466Z,7.07
2019-04-14T07:49:07.481Z,6.93
2019-04-14T07:51:55.390Z,7.07
2019-04-14T07:54:41.373Z,6.99
2019-04-14T07:57:11.736Z,7.10
2019-04-14T07:59:41.789Z,7.13
2019-04-14T08:02:11.828Z,7.25
2019-04-14T08:04:41.852Z,7.38
2019-04-14T08:07:11.374Z,7.50
2019-04-14T08:09:39.784Z,7.22
2019-04-14T08:12:09.134Z,7.13
2019-04-14T08:14:37.532Z,6.96
2019-04-14T08:17:05.924Z,6.91
2019-04-14T08:19:34.319Z,7.10
2019-04-14T08:22:02.721Z,7.37
2019-04-14T08:24:31.126Z,7.54
2019-04-14T08:27:00.014Z,7.72
2019-04-14T08:29:28.422Z,7.62
2019-04-14T08:31:56.843Z,7.26
2019-04-14T08:34:25.235Z,7.39
2019-04-14T08:36:56.589Z,7.53
2019-04-14T08:39:24.970Z,7.54
2019-04-14T08:41:57.727Z,7.48
2019-04-14T08:44:33.979Z,7.55
2019-04-14T08:47:16.424Z,7.58
2019-04-14T08:49:49.482Z,7.52
2019-04-14T08:52:28.866Z,7.10
2019-04-14T08:55:02.574Z,7.08
2019-04-14T08:57:49.030Z,7.09
2019-04-14T09:00:19.130Z,7.40
2019-04-14T09:03:02.390Z,7.67
2019-04-14T09:05:34.569Z,7.63
2019-04-14T09:08:20.659Z,7.63
2019-04-14T09:10:56.414Z,7.49
2019-04-14T09:13:24.851Z,7.47
2019-04-14T09:15:53.205Z,7.68
2019-04-14T09:18:21.594Z,7.58
2019-04-14T09:20:52.335Z,7.48
2019-04-14T09:23:20.650Z,7.51
2019-04-14T09:25:49.074Z,7.28
2019-04-14T09:28:17.456Z,7.17
2019-04-14T09:30:47.283Z,7.12
2019-04-14T09:33:16.044Z,7.28
2019-04-14T09:35:45.396Z,7.13
2019-04-14T09:38:13.778Z,7.52
2019-04-14T09:40:43.469Z,7.46
2019-04-14T09:43:15.758Z,7.58
2019-04-14T09:48:32.892Z,7.34
2019-04-14T09:51:05.054Z,7.19
2019-04-14T09:53:31.405Z,7.13
2019-04-14T09:55:59.794Z,7.23
2019-04-14T09:58:29.300Z,7.46
2019-04-14T10:00:58.779Z,7.41
2019-04-14T10:03:27.166Z,7.65
2019-04-14T10:05:57.592Z,7.66
2019-04-14T10:08:25.998Z,7.68
2019-04-14T10:10:54.570Z,7.85
2019-04-14T10:13:22.971Z,7.58
2019-04-14T10:16:03.252Z,7.64
2019-04-14T10:18:31.655Z,7.96
2019-04-14T10:21:00.043Z,7.70
2019-04-14T10:23:29.961Z,7.66
2019-04-14T10:25:58.434Z,7.74
2019-04-14T10:29:00.109Z,7.50
2019-04-14T10:31:12.811Z,7.51
2019-04-14T10:33:41.680Z,7.43
2019-04-14T10:36:10.125Z,7.68
2019-04-14T10:38:38.502Z,7.52
2019-04-14T10:41:06.932Z,7.38
2019-04-14T10:43:39.336Z,7.37
2019-04-14T10:46:07.879Z,7.47
2019-04-14T10:48:36.264Z,7.46
2019-04-14T10:51:05.746Z,7.27
2019-04-14T10:53:34.132Z,7.54
2019-04-14T10:56:02.529Z,7.81
2019-04-14T10:58:40.323Z,7.75
2019-04-14T11:01:08.705Z,7.68
2019-04-14T11:03:37.242Z,7.64
2019-04-14T11:06:12.982Z,7.58
2019-04-14T11:08:41.394Z,7.86
2019-04-14T11:11:09.861Z,7.74
2019-04-14T11:13:38.317Z,7.80
2019-04-14T11:16:06.721Z,7.65
2019-04-14T11:18:35.111Z,7.51
2019-04-14T11:21:06.448Z,7.83
2019-04-14T11:23:34.949Z,7.94
2019-04-14T11:28:44.792Z,7.87
2019-04-14T11:31:14.823Z,7.92
2019-04-14T11:34:01.879Z,7.63
2019-04-14T11:36:34.773Z,7.73
2019-04-14T11:39:10.156Z,7.52
2019-04-14T11:41:38.604Z,7.62
2019-04-14T11:44:11.179Z,7.77
2019-04-14T11:46:46.582Z,7.90
2019-04-14T11:49:15.160Z,8.20
2019-04-14T11:51:54.614Z,8.50
2019-04-14T11:54:13.662Z,8.39
2019-04-14T11:56:42.137Z,8.39
2019-04-14T11:59:17.248Z,8.33
2019-04-14T12:01:53.530Z,8.51
2019-04-14T12:04:23.639Z,8.46
2019-04-14T12:07:05.941Z,8.66
2019-04-14T12:09:39.089Z,8.16
2019-04-14T12:12:12.177Z,7.89
2019-04-14T12:14:40.587Z,7.98
2019-04-14T12:17:08.973Z,7.50
2019-04-14T12:19:37.513Z,7.22
2019-04-14T12:22:08.364Z,7.47
2019-04-14T12:24:36.355Z,7.58
2019-04-14T12:27:04.760Z,7.77
2019-04-14T12:29:34.699Z,7.91
2019-04-14T12:32:06.893Z,7.91
2019-04-14T12:34:36.337Z,7.90
2019-04-14T12:37:05.195Z,7.84
2019-04-14T12:39:33.653Z,8.12
2019-04-14T12:42:21.492Z,8.15
2019-04-14T12:45:10.789Z,8.19
2019-04-14T12:47:47.198Z,8.01
2019-04-14T12:50:20.520Z,8.14
2019-04-14T12:52:49.168Z,7.85
2019-04-14T12:55:17.557Z,7.48
2019-04-14T12:57:47.629Z,7.53
2019-04-14T13:00:23.126Z,7.54
2019-04-14T13:02:53.119Z,7.57
2019-04-14T13:05:21.529Z,7.66
2019-04-14T13:07:49.913Z,7.53
2019-04-14T13:10:19.401Z,7.54
2019-04-14T13:12:47.872Z,7.58
2019-04-14T13:15:17.179Z,7.65
2019-04-14T13:17:45.788Z,7.60
2019-04-14T13:20:17.031Z,7.75
2019-04-14T13:22:45.441Z,8.33
2019-04-14T13:25:19.836Z,8.52
2019-04-14T13:27:54.717Z,8.72
2019-04-14T13:30:28.219Z,8.77
2019-04-14T13:32:56.886Z,8.83
2019-04-14T13:35:25.352Z,8.77
2019-04-14T13:37:57.625Z,8.70
2019-04-14T13:40:26.044Z,8.99
2019-04-14T13:42:54.817Z,9.11
2019-04-14T13:45:29.647Z,8.80
2019-04-14T13:47:57.999Z,8.95
2019-04-14T13:50:27.390Z,8.96
2019-04-14T13:52:58.062Z,8.70
2019-04-14T13:55:26.505Z,8.95
2019-04-14T13:57:57.544Z,9.08
2019-04-14T14:00:27.217Z,9.42
2019-04-14T14:02:55.587Z,9.61
2019-04-14T14:05:24.042Z,9.71
2019-04-14T14:07:52.448Z,8.36
2019-04-14T14:10:20.827Z,9.89
2019-04-14T14:12:59.688Z,9.52
2019-04-14T14:15:38.844Z,8.86
2019-04-14T14:18:28.882Z,8.55
2019-04-14T14:21:05.601Z,8.35
2019-04-14T14:23:35.659Z,8.21
2019-04-14T14:26:05.682Z,8.36
2019-04-14T14:28:34.089Z,8.47
2019-04-14T14:31:02.497Z,8.49
2019-04-14T14:33:30.880Z,8.78
2019-04-14T14:35:59.259Z,8.89
2019-04-14T14:38:31.773Z,8.79
2019-04-14T14:41:01.917Z,8.66
2019-04-14T14:43:32.833Z,8.35
2019-04-14T14:46:08.155Z,8.32
2019-04-14T14:48:52.028Z,8.41
2019-04-14T14:51:34.813Z,8.37
2019-04-14T14:54:15.205Z,8.63
2019-04-14T14:56:52.216Z,8.77
2019-04-14T14:59:20.574Z,8.69
2019-04-14T15:01:49.017Z,8.60
2019-04-14T15:04:19.073Z,8.60
2019-04-14T15:06:47.455Z,8.59
2019-04-14T15:09:15.831Z,8.42
2019-04-14T15:11:44.216Z,8.57
2019-04-14T15:14:12.634Z,8.57
2019-04-14T15:16:41.090Z,8.78
2019-04-14T15:19:09.481Z,8.62
2019-04-14T15:21:37.908Z,8.45
2019-04-14T15:24:09.070Z,8.46
2019-04-14T15:26:41.155Z,8.49
2019-04-14T15:29:09.547Z,8.40
2019-04-14T15:31:39.012Z,8.52
2019-04-14T15:34:07.416Z,8.46
2019-04-14T15:36:39.679Z,8.28
2019-04-14T15:39:10.478Z,8.49
2019-04-14T15:41:38.874Z,8.36
2019-04-14T15:44:07.635Z,8.23
2019-04-14T15:46:38.162Z,8.25
2019-04-14T15:49:09.482Z,8.37
2019-04-14T15:51:37.944Z,8.19
2019-04-14T15:54:07.418Z,8.26
2019-04-14T15:56:55.745Z,7.98
2019-04-14T15:59:42.284Z,8.37
2019-04-14T16:02:13.761Z,8.33
2019-04-14T16:04:43.772Z,8.26
2019-04-14T16:07:13.816Z,8.08
2019-04-14T16:09:51.330Z,8.16
2019-04-14T16:12:21.481Z,7.99
2019-04-14T16:14:54.292Z,8.03
2019-04-14T16:17:36.347Z,7.97
2019-04-14T16:20:07.634Z,8.03
2019-04-14T16:22:39.018Z,8.05
2019-04-14T16:25:07.519Z,8.04
2019-04-14T16:27:53.964Z,8.02
2019-04-14T16:30:38.151Z,8.27
2019-04-14T16:33:14.725Z,8.36
2019-04-14T16:35:48.311Z,8.22
2019-04-14T16:38:16.802Z,7.90
2019-04-14T16:40:46.154Z,7.95
2019-04-14T16:43:14.616Z,8.00
2019-04-14T16:45:43.085Z,7.71
2019-04-14T16:48:12.412Z,7.71
2019-04-14T16:50:41.861Z,7.69
2019-04-14T16:53:23.965Z,7.81
2019-04-14T16:55:57.068Z,7.80
2019-04-14T16:58:29.910Z,7.66
2019-04-14T17:01:12.817Z,7.66
2019-04-14T17:03:41.266Z,7.66
2019-04-14T17:06:09.645Z,7.55
2019-04-14T17:08:38.023Z,7.34
2019-04-14T17:11:06.787Z,7.39
2019-04-14T17:13:39.260Z,7.42
2019-04-14T17:16:15.179Z,7.38
2019-04-14T17:18:45.243Z,7.38
2019-04-14T17:21:15.291Z,7.42
2019-04-14T17:23:46.358Z,7.29
2019-04-14T17:26:37.295Z,7.24
2019-04-14T17:29:07.319Z,7.38
2019-04-14T17:31:46.976Z,7.07
2019-04-14T17:34:32.424Z,7.16
2019-04-14T17:37:10.446Z,7.19
2019-04-14T17:39:58.676Z,7.18
2019-04-14T17:42:41.894Z,7.17
2019-04-14T17:45:28.285Z,7.26
2019-04-14T17:48:12.769Z,7.22
2019-04-14T17:50:45.768Z,7.07
2019-04-14T17:53:38.690Z,7.03
2019-04-14T17:56:13.632Z,7.15
2019-04-14T17:59:01.633Z,7.13
2019-04-14T18:01:42.112Z,7.16
2019-04-14T18:04:12.205Z,7.21
2019-04-14T18:06:56.235Z,7.12
2019-04-14T18:09:46.679Z,7.32
2019-04-14T18:12:27.017Z,7.31
2019-04-14T18:15:03.222Z,7.35
2019-04-14T18:17:33.257Z,7.27
2019-04-14T18:20:06.010Z,7.27
2019-04-14T18:22:34.408Z,7.20
2019-04-14T18:25:05.209Z,7.40
2019-04-14T18:27:36.701Z,7.44
2019-04-14T18:30:26.105Z,7.43
2019-04-14T18:33:01.039Z,7.26
2019-04-14T18:35:31.072Z,7.28
2019-04-14T18:38:03.803Z,7.28
2019-04-14T18:40:33.995Z,7.42
2019-04-14T18:43:04.119Z,7.29
2019-04-14T18:45:36.896Z,7.39
2019-04-14T18:48:13.745Z,7.44
2019-04-14T18:50:52.449Z,7.49
2019-04-14T18:53:37.809Z,7.45
2019-04-14T18:56:12.816Z,7.53
2019-04-14T18:58:42.844Z,7.47
2019-04-14T19:01:19.950Z,7.62
2019-04-14T19:03:48.369Z,7.51
2019-04-14T19:06:16.798Z,7.47
2019-04-14T19:08:46.250Z,7.60
2019-04-14T19:11:25.935Z,7.53
2019-04-14T19:14:05.928Z,7.63
2019-04-14T19:16:47.751Z,7.65
2019-04-14T19:19:18.009Z,7.50
2019-04-14T19:21:47.450Z,7.38
2019-04-14T19:24:15.823Z,7.55
2019-04-14T19:26:44.233Z,7.67
2019-04-14T19:29:13.944Z,7.70
2019-04-14T19:31:42.787Z,7.78
2019-04-14T19:34:11.180Z,7.50
2019-04-14T19:36:39.569Z,7.66
2019-04-14T19:39:14.105Z,7.66
2019-04-14T19:41:42.540Z,7.74
2019-04-14T19:44:11.165Z,7.71
2019-04-14T19:46:39.763Z,7.81
2019-04-14T19:49:08.165Z,7.66
2019-04-14T19:51:37.608Z,7.76
2019-04-14T19:54:06.022Z,7.61
2019-04-14T19:56:34.430Z,7.65
2019-04-14T19:59:02.908Z,7.56
2019-04-14T20:01:31.331Z,7.67
2019-04-14T20:04:03.830Z,7.78
2019-04-14T20:06:32.594Z,7.71
2019-04-14T20:09:02.086Z,7.76
2019-04-14T20:11:31.464Z,7.70
2019-04-14T20:14:02.593Z,7.76
2019-04-14T20:16:38.576Z,7.75
2019-04-14T20:19:11.781Z,7.77
2019-04-14T20:21:42.180Z,7.80
2019-04-14T20:24:33.547Z,7.78
2019-04-14T20:27:08.879Z,7.81
2019-04-14T20:29:39.976Z,7.66
2019-04-14T20:32:19.610Z,7.82
2019-04-14T20:34:47.979Z,7.72
2019-04-14T20:37:16.504Z,7.73
2019-04-14T20:39:44.890Z,7.56
2019-04-14T20:42:14.329Z,7.69
2019-04-14T20:44:44.658Z,7.54
2019-04-14T20:47:13.874Z,7.63
2019-04-14T20:49:42.269Z,7.71
2019-04-14T20:52:18.958Z,7.70
2019-04-14T20:54:47.365Z,7.68
2019-04-14T20:57:16.137Z,7.59
2019-04-14T20:59:44.554Z,7.57
2019-04-14T21:02:23.964Z,7.55
2019-04-14T21:04:54.093Z,7.47
2019-04-14T21:07:40.053Z,7.56
2019-04-14T21:10:19.146Z,7.51
2019-04-14T21:12:56.990Z,7.48
2019-04-14T21:15:33.380Z,7.32
2019-04-14T21:18:03.415Z,7.36
2019-04-14T21:21:02.719Z,7.37
2019-04-14T21:23:42.826Z,7.36
2019-04-14T21:26:12.863Z,7.36
2019-04-14T21:28:42.967Z,7.29
2019-04-14T21:31:14.110Z,7.23
2019-04-14T21:33:44.203Z,7.24
2019-04-14T21:36:26.099Z,7.30
2019-04-14T21:39:22.194Z,7.31
2019-04-14T21:41:50.433Z,7.43
2019-04-14T21:44:18.805Z,7.29
2019-04-14T21:46:49.919Z,7.26
2019-04-14T21:49:24.723Z,7.26
2019-04-14T21:52:14.658Z,7.37
2019-04-14T21:54:47.323Z,7.25
2019-04-14T21:57:48.575Z,7.13
2019-04-14T22:00:23.546Z,7.17
2019-04-14T22:02:59.509Z,7.08
2019-04-14T22:05:44.715Z,7.19
2019-04-14T22:08:31.457Z,6.93
2019-04-14T22:11:06.113Z,7.12
2019-04-14T22:13:34.518Z,6.99
2019-04-14T22:16:07.412Z,7.12
2019-04-14T22:18:37.005Z,7.22
2019-04-14T22:21:05.378Z,7.18
2019-04-14T22:23:37.412Z,7.08
2019-04-14T22:26:08.065Z,7.23
2019-04-14T22:28:39.850Z,7.21
2019-04-14T22:31:08.231Z,7.33
2019-04-14T22:33:39.430Z,7.00
2019-04-14T22:36:10.305Z,7.15
2019-04-14T22:38:38.731Z,6.83
2019-04-14T22:41:07.196Z,6.86
2019-04-14T22:43:35.569Z,6.98
2019-04-14T22:46:12.247Z,7.17
2019-04-14T22:48:40.620Z,7.15
2019-04-14T22:51:15.370Z,7.17
2019-04-14T22:53:46.499Z,7.22
2019-04-14T22:56:14.855Z,7.19
2019-04-14T22:58:43.229Z,6.94
2019-04-14T23:01:22.387Z,6.96
2019-04-14T23:04:02.808Z,7.11
2019-04-14T23:06:38.170Z,7.00
2019-04-14T23:09:25.768Z,7.06
2019-04-14T23:12:07.866Z,7.06
2019-04-14T23:14:44.089Z,6.94
2019-04-14T23:17:28.179Z,6.88
2019-04-14T23:20:08.259Z,6.85
2019-04-14T23:22:45.728Z,6.79
2019-04-14T23:25:18.765Z,6.68
2019-04-14T23:27:48.283Z,6.58
2019-04-14T23:30:23.053Z,6.74
2019-04-14T23:32:51.451Z,6.76
2019-04-14T23:35:19.839Z,6.83
2019-04-14T23:37:48.221Z,6.77
2019-04-14T23:40:16.630Z,6.64
2019-04-14T23:42:45.011Z,6.71
2019-04-14T23:45:14.836Z,6.60
2019-04-14T23:47:43.314Z,6.56
2019-04-14T23:50:12.195Z,6.66
2019-04-14T23:52:40.893Z,6.62
2019-04-14T23:55:12.110Z,6.55
2019-04-14T23:57:40.536Z,6.52
